DLH35H EDDL-EDDF
Flight info
| Callsign | DLH35H |
|---|---|
| Flight time | 0h 33m |
| Altitude | 23000 |
| Route | COL5Z COL T911 ROLIS ROLIS5A |
| Aircraft | A343/H-SDE2E3FGHIJ4J5M1RWXY/LB1D1 |
Departure
| Time | 2026-05-06 19:29 |
|---|---|
| Airport | Düsseldorf Airport (EDDL) |
Arrival
| Time | 2026-05-06 20:02 |
|---|---|
| Airport | Frankfurt Main Airport (EDDF) |
| Time | Latitude | Longitude | Altitude | Speed | Heading |
|---|---|---|---|---|---|
| 2026-05-06 19:01 | 51.27439 | 6.75537 | 125 ft | 0 kts | 243° |
| 2026-05-06 19:01 | 51.27458 | 6.75542 | 125 ft | 0 kts | 243° |
| 2026-05-06 19:16 | 51.27466 | 6.75569 | 127 ft | 4 kts | 245° |
| 2026-05-06 19:16 | 51.27475 | 6.75608 | 129 ft | 4 kts | 268° |
| 2026-05-06 19:17 | 51.27470 | 6.75636 | 133 ft | 2 kts | 333° |
| 2026-05-06 19:17 | 51.27452 | 6.75651 | 131 ft | 1 kts | 333° |
| 2026-05-06 19:17 | 51.27452 | 6.75650 | 131 ft | 0 kts | 333° |
| 2026-05-06 19:20 | 51.27453 | 6.75650 | 131 ft | 1 kts | 333° |
| 2026-05-06 19:20 | 51.27474 | 6.75632 | 133 ft | 6 kts | 333° |
| 2026-05-06 19:20 | 51.27523 | 6.75593 | 131 ft | 9 kts | 333° |
| 2026-05-06 19:21 | 51.27594 | 6.75542 | 129 ft | 12 kts | 340° |
| 2026-05-06 19:21 | 51.27668 | 6.75485 | 124 ft | 13 kts | 334° |
| 2026-05-06 19:21 | 51.27754 | 6.75421 | 126 ft | 14 kts | 334° |
| 2026-05-06 19:21 | 51.27836 | 6.75356 | 127 ft | 9 kts | 333° |
| 2026-05-06 19:22 | 51.27866 | 6.75330 | 125 ft | 0 kts | 331° |
| 2026-05-06 19:22 | 51.27867 | 6.75330 | 125 ft | 0 kts | 331° |
| 2026-05-06 19:24 | 51.27919 | 6.75288 | 123 ft | 24 kts | 334° |
| 2026-05-06 19:24 | 51.27998 | 6.75284 | 125 ft | 4 kts | 49° |
| 2026-05-06 19:24 | 51.28005 | 6.75297 | 124 ft | 0 kts | 50° |
| 2026-05-06 19:28 | 51.28006 | 6.75298 | 124 ft | 1 kts | 50° |
| 2026-05-06 19:28 | 51.28068 | 6.75417 | 125 ft | 43 kts | 51° |
| 2026-05-06 19:28 | 51.28368 | 6.76059 | 128 ft | 100 kts | 53° |
| 2026-05-06 19:28 | 51.28891 | 6.77160 | 127 ft | 146 kts | 52° |
| 2026-05-06 19:29 | 51.29526 | 6.78549 | 582 ft | 156 kts | 51° |
| 2026-05-06 19:29 | 51.30161 | 6.79961 | 1243 ft | 158 kts | 52° |
| 2026-05-06 19:29 | 51.30809 | 6.81427 | 1908 ft | 165 kts | 52° |
| 2026-05-06 19:29 | 51.31476 | 6.82966 | 2585 ft | 172 kts | 53° |
| 2026-05-06 19:30 | 51.32142 | 6.84599 | 3295 ft | 179 kts | 56° |
| 2026-05-06 19:30 | 51.32770 | 6.86367 | 3971 ft | 189 kts | 59° |
| 2026-05-06 19:30 | 51.33171 | 6.87659 | 4385 ft | 200 kts | 62° |
| 2026-05-06 19:30 | 51.33727 | 6.89781 | 5103 ft | 214 kts | 67° |
| 2026-05-06 19:31 | 51.34190 | 6.92103 | 5897 ft | 224 kts | 72° |
| 2026-05-06 19:31 | 51.34503 | 6.94602 | 6721 ft | 234 kts | 79° |
| 2026-05-06 19:31 | 51.34299 | 6.99945 | 8458 ft | 247 kts | 98° |
| 2026-05-06 19:32 | 51.33894 | 7.02613 | 9495 ft | 246 kts | 102° |
| 2026-05-06 19:32 | 51.33433 | 7.05218 | 10447 ft | 242 kts | 99° |
| 2026-05-06 19:32 | 51.33112 | 7.07832 | 11373 ft | 237 kts | 98° |
| 2026-05-06 19:32 | 51.32780 | 7.10424 | 12132 ft | 242 kts | 98° |
| 2026-05-06 19:33 | 51.32447 | 7.13110 | 12809 ft | 249 kts | 98° |
| 2026-05-06 19:33 | 51.32099 | 7.15863 | 13559 ft | 256 kts | 105° |
| 2026-05-06 19:33 | 51.31065 | 7.18206 | 14107 ft | 271 kts | 145° |
| 2026-05-06 19:33 | 51.29361 | 7.19646 | 14588 ft | 283 kts | 158° |
| 2026-05-06 19:34 | 51.27473 | 7.20746 | 15055 ft | 295 kts | 163° |
| 2026-05-06 19:34 | 51.25464 | 7.21558 | 15485 ft | 308 kts | 169° |
| 2026-05-06 19:34 | 51.23309 | 7.22254 | 15841 ft | 323 kts | 169° |
| 2026-05-06 19:34 | 51.21074 | 7.23059 | 16198 ft | 338 kts | 167° |
| 2026-05-06 19:35 | 51.18745 | 7.23980 | 16564 ft | 352 kts | 167° |
| 2026-05-06 19:35 | 51.16333 | 7.24984 | 16924 ft | 365 kts | 166° |
| 2026-05-06 19:35 | 51.13833 | 7.26053 | 17305 ft | 379 kts | 165° |
| 2026-05-06 19:35 | 51.11319 | 7.27516 | 17680 ft | 393 kts | 154° |
| 2026-05-06 19:36 | 51.08923 | 7.29697 | 18247 ft | 400 kts | 149° |
| 2026-05-06 19:36 | 51.06545 | 7.32033 | 18810 ft | 404 kts | 149° |
| 2026-05-06 19:36 | 51.04138 | 7.34399 | 19360 ft | 409 kts | 149° |
| 2026-05-06 19:36 | 51.01706 | 7.36779 | 19924 ft | 413 kts | 149° |
| 2026-05-06 19:37 | 50.99245 | 7.39180 | 20497 ft | 417 kts | 149° |
| 2026-05-06 19:37 | 50.96758 | 7.41602 | 21063 ft | 420 kts | 149° |
| 2026-05-06 19:37 | 50.94256 | 7.44034 | 21636 ft | 424 kts | 149° |
| 2026-05-06 19:37 | 50.91734 | 7.46481 | 22195 ft | 427 kts | 149° |
| 2026-05-06 19:38 | 50.89191 | 7.48945 | 22695 ft | 432 kts | 149° |
| 2026-05-06 19:38 | 50.87708 | 7.50380 | 22829 ft | 436 kts | 149° |
| 2026-05-06 19:38 | 50.85346 | 7.52663 | 22877 ft | 443 kts | 149° |
| 2026-05-06 19:38 | 50.82697 | 7.55219 | 22870 ft | 446 kts | 150° |
| 2026-05-06 19:39 | 50.80059 | 7.57762 | 22873 ft | 445 kts | 150° |
| 2026-05-06 19:39 | 50.77334 | 7.60076 | 22867 ft | 443 kts | 157° |
| 2026-05-06 19:39 | 50.74510 | 7.62014 | 22861 ft | 443 kts | 159° |
| 2026-05-06 19:39 | 50.71661 | 7.63901 | 22861 ft | 443 kts | 159° |
| 2026-05-06 19:40 | 50.68825 | 7.65779 | 22858 ft | 443 kts | 159° |
| 2026-05-06 19:40 | 50.65985 | 7.67661 | 22851 ft | 443 kts | 159° |
| 2026-05-06 19:40 | 50.63141 | 7.69545 | 22849 ft | 443 kts | 159° |
| 2026-05-06 19:40 | 50.60297 | 7.71430 | 22859 ft | 443 kts | 159° |
| 2026-05-06 19:41 | 50.57463 | 7.73306 | 22857 ft | 442 kts | 159° |
| 2026-05-06 19:41 | 50.54633 | 7.75177 | 22857 ft | 442 kts | 159° |
| 2026-05-06 19:41 | 50.51788 | 7.77056 | 22863 ft | 442 kts | 159° |
| 2026-05-06 19:41 | 50.48956 | 7.78925 | 22864 ft | 442 kts | 159° |
| 2026-05-06 19:42 | 50.46131 | 7.80833 | 22658 ft | 440 kts | 156° |
| 2026-05-06 19:42 | 50.43533 | 7.83288 | 22400 ft | 435 kts | 143° |
| 2026-05-06 19:42 | 50.41375 | 7.86566 | 22127 ft | 433 kts | 132° |
| 2026-05-06 19:42 | 50.39461 | 7.90210 | 21856 ft | 433 kts | 130° |
| 2026-05-06 19:43 | 50.37571 | 7.93882 | 21583 ft | 432 kts | 130° |
| 2026-05-06 19:43 | 50.35683 | 7.97535 | 21315 ft | 430 kts | 130° |
| 2026-05-06 19:43 | 50.33810 | 8.01144 | 21056 ft | 428 kts | 130° |
| 2026-05-06 19:43 | 50.31927 | 8.04757 | 20797 ft | 427 kts | 130° |
| 2026-05-06 19:44 | 50.30048 | 8.08356 | 20548 ft | 425 kts | 130° |
| 2026-05-06 19:44 | 50.28178 | 8.11933 | 20282 ft | 424 kts | 130° |
| 2026-05-06 19:44 | 50.26380 | 8.15579 | 19778 ft | 425 kts | 124° |
| 2026-05-06 19:44 | 50.24655 | 8.19315 | 19121 ft | 423 kts | 130° |
| 2026-05-06 19:45 | 50.22743 | 8.22819 | 18387 ft | 423 kts | 138° |
| 2026-05-06 19:45 | 50.20420 | 8.25625 | 17615 ft | 422 kts | 146° |
| 2026-05-06 19:45 | 50.18069 | 8.28272 | 16806 ft | 410 kts | 146° |
| 2026-05-06 19:45 | 50.15803 | 8.30782 | 16026 ft | 392 kts | 146° |
| 2026-05-06 19:46 | 50.13624 | 8.33342 | 15282 ft | 392 kts | 140° |
| 2026-05-06 19:46 | 50.11858 | 8.36541 | 14536 ft | 391 kts | 123° |
| 2026-05-06 19:46 | 50.10792 | 8.40405 | 13809 ft | 389 kts | 104° |
| 2026-05-06 19:46 | 50.10556 | 8.44414 | 13080 ft | 387 kts | 87° |
| 2026-05-06 19:47 | 50.11200 | 8.48519 | 12287 ft | 386 kts | 66° |
| 2026-05-06 19:47 | 50.12463 | 8.52246 | 11520 ft | 390 kts | 62° |
| 2026-05-06 19:47 | 50.13692 | 8.56027 | 10781 ft | 393 kts | 65° |
| 2026-05-06 19:47 | 50.14806 | 8.59900 | 10058 ft | 387 kts | 67° |
| 2026-05-06 19:48 | 50.15797 | 8.63653 | 9777 ft | 367 kts | 68° |
| 2026-05-06 19:48 | 50.16705 | 8.67234 | 9510 ft | 340 kts | 69° |
| 2026-05-06 19:48 | 50.17518 | 8.70519 | 9235 ft | 311 kts | 69° |
| 2026-05-06 19:48 | 50.18256 | 8.73550 | 8950 ft | 291 kts | 70° |
| 2026-05-06 19:49 | 50.18976 | 8.76544 | 8683 ft | 298 kts | 70° |
| 2026-05-06 19:49 | 50.19701 | 8.79575 | 8435 ft | 295 kts | 70° |
| 2026-05-06 19:49 | 50.20411 | 8.82567 | 8226 ft | 296 kts | 70° |
| 2026-05-06 19:49 | 50.21116 | 8.85566 | 8066 ft | 293 kts | 70° |
| 2026-05-06 19:50 | 50.21822 | 8.88567 | 7858 ft | 295 kts | 70° |
| 2026-05-06 19:50 | 50.22535 | 8.91607 | 7438 ft | 298 kts | 70° |
| 2026-05-06 19:50 | 50.23230 | 8.94577 | 7205 ft | 294 kts | 70° |
| 2026-05-06 19:50 | 50.23930 | 8.97568 | 6917 ft | 292 kts | 70° |
| 2026-05-06 19:51 | 50.24626 | 9.00527 | 6619 ft | 290 kts | 70° |
| 2026-05-06 19:51 | 50.25315 | 9.03486 | 6315 ft | 289 kts | 70° |
| 2026-05-06 19:51 | 50.25997 | 9.06424 | 6013 ft | 287 kts | 71° |
| 2026-05-06 19:51 | 50.26502 | 9.09423 | 5665 ft | 285 kts | 87° |
| 2026-05-06 19:52 | 50.26209 | 9.12426 | 5358 ft | 279 kts | 114° |
| 2026-05-06 19:52 | 50.25113 | 9.14859 | 5029 ft | 273 kts | 141° |
| 2026-05-06 19:52 | 50.23467 | 9.16218 | 4687 ft | 268 kts | 169° |
| 2026-05-06 19:52 | 50.21636 | 9.16230 | 4316 ft | 263 kts | 197° |
| 2026-05-06 19:53 | 50.20036 | 9.14959 | 3998 ft | 257 kts | 219° |
| 2026-05-06 19:53 | 50.18673 | 9.13158 | 3920 ft | 257 kts | 223° |
| 2026-05-06 19:53 | 50.17373 | 9.11249 | 3942 ft | 257 kts | 229° |
| 2026-05-06 19:53 | 50.16297 | 9.09032 | 3938 ft | 256 kts | 239° |
| 2026-05-06 19:54 | 50.15497 | 9.06583 | 3925 ft | 247 kts | 248° |
| 2026-05-06 19:54 | 50.14883 | 9.04165 | 3912 ft | 233 kts | 250° |
| 2026-05-06 19:54 | 50.14329 | 9.01857 | 3901 ft | 224 kts | 250° |
| 2026-05-06 19:54 | 50.13791 | 8.99607 | 3891 ft | 216 kts | 250° |
| 2026-05-06 19:55 | 50.13278 | 8.97472 | 3877 ft | 204 kts | 250° |
| 2026-05-06 19:55 | 50.12870 | 8.95617 | 4324 ft | 167 kts | 254° |
| 2026-05-06 19:55 | 50.12451 | 8.94045 | 4456 ft | 153 kts | 249° |
| 2026-05-06 19:55 | 50.12325 | 8.92453 | 4698 ft | 145 kts | 281° |
| 2026-05-06 19:56 | 50.12289 | 8.91002 | 4985 ft | 132 kts | 242° |
| 2026-05-06 19:56 | 50.11817 | 8.89730 | 5253 ft | 146 kts | 239° |
| 2026-05-06 19:56 | 50.11380 | 8.88187 | 4959 ft | 159 kts | 249° |
| 2026-05-06 19:56 | 50.10990 | 8.86575 | 4544 ft | 160 kts | 250° |
| 2026-05-06 19:57 | 50.10511 | 8.84997 | 4029 ft | 164 kts | 244° |
| 2026-05-06 19:57 | 50.09995 | 8.83386 | 3600 ft | 165 kts | 246° |
| 2026-05-06 19:57 | 50.09523 | 8.81792 | 3283 ft | 158 kts | 251° |
| 2026-05-06 19:57 | 50.09165 | 8.80249 | 3122 ft | 143 kts | 255° |
| 2026-05-06 19:58 | 50.08884 | 8.78838 | 3058 ft | 134 kts | 256° |
| 2026-05-06 19:58 | 50.08555 | 8.77471 | 2923 ft | 136 kts | 252° |
| 2026-05-06 19:58 | 50.08189 | 8.76118 | 2797 ft | 137 kts | 250° |
| 2026-05-06 19:58 | 50.07818 | 8.74762 | 2560 ft | 137 kts | 250° |
| 2026-05-06 19:59 | 50.07455 | 8.73415 | 2382 ft | 133 kts | 258° |
| 2026-05-06 19:59 | 50.07290 | 8.72002 | 2100 ft | 133 kts | 264° |
| 2026-05-06 19:59 | 50.07168 | 8.70589 | 1850 ft | 131 kts | 262° |
| 2026-05-06 19:59 | 50.06932 | 8.69208 | 1698 ft | 133 kts | 255° |
| 2026-05-06 20:00 | 50.06638 | 8.67819 | 1577 ft | 133 kts | 255° |
| 2026-05-06 20:00 | 50.06330 | 8.66482 | 1453 ft | 133 kts | 252° |
| 2026-05-06 20:00 | 50.06027 | 8.65137 | 1258 ft | 130 kts | 255° |
| 2026-05-06 20:00 | 50.05717 | 8.63834 | 1089 ft | 127 kts | 250° |
| 2026-05-06 20:01 | 50.05392 | 8.62538 | 920 ft | 132 kts | 253° |
| 2026-05-06 20:01 | 50.05093 | 8.61215 | 762 ft | 126 kts | 253° |
| 2026-05-06 20:01 | 50.04808 | 8.59940 | 592 ft | 123 kts | 250° |
| 2026-05-06 20:01 | 50.04509 | 8.58717 | 420 ft | 119 kts | 249° |
| 2026-05-06 20:02 | 50.04245 | 8.57578 | 374 ft | 93 kts | 249° |
| 2026-05-06 20:02 | 50.04089 | 8.56897 | 371 ft | 41 kts | 248° |
| 2026-05-06 20:02 | 50.04074 | 8.56737 | 370 ft | 4 kts | 331° |
| 2026-05-06 20:02 | 50.04127 | 8.56751 | 369 ft | 14 kts | 14° |
| 2026-05-06 20:03 | 50.04185 | 8.56776 | 367 ft | 4 kts | 14° |
| 2026-05-06 20:03 | 50.04200 | 8.56782 | 368 ft | 1 kts | 15° |
| 2026-05-06 20:03 | 50.04234 | 8.56793 | 369 ft | 14 kts | 11° |
| 2026-05-06 20:03 | 50.04378 | 8.56837 | 369 ft | 22 kts | 11° |
| 2026-05-06 20:04 | 50.04436 | 8.56822 | 370 ft | 2 kts | 284° |
| 2026-05-06 20:04 | 50.04423 | 8.56713 | 366 ft | 19 kts | 253° |
| 2026-05-06 20:04 | 50.04373 | 8.56500 | 366 ft | 22 kts | 250° |
| 2026-05-06 20:04 | 50.04319 | 8.56272 | 365 ft | 23 kts | 249° |
| 2026-05-06 20:05 | 50.04268 | 8.56057 | 365 ft | 19 kts | 253° |
| 2026-05-06 20:05 | 50.04306 | 8.55952 | 362 ft | 9 kts | 336° |
| 2026-05-06 20:05 | 50.04380 | 8.55913 | 366 ft | 12 kts | 353° |
| 2026-05-06 20:05 | 50.04468 | 8.55932 | 366 ft | 16 kts | 15° |
| 2026-05-06 20:06 | 50.04569 | 8.56023 | 369 ft | 17 kts | 62° |
| 2026-05-06 20:06 | 50.04610 | 8.56198 | 367 ft | 19 kts | 69° |
| 2026-05-06 20:06 | 50.04650 | 8.56361 | 367 ft | 10 kts | 69° |
| 2026-05-06 20:06 | 50.04688 | 8.56413 | 367 ft | 6 kts | 8° |
| 2026-05-06 20:07 | 50.04731 | 8.56401 | 364 ft | 7 kts | 342° |
| 2026-05-06 20:07 | 50.04745 | 8.56393 | 362 ft | 3 kts | 341° |
| 2026-05-06 20:07 | 50.04753 | 8.56389 | 367 ft | 1 kts | 341° |
| 2026-05-06 20:07 | 50.04754 | 8.56389 | 367 ft | 0 kts | 341° |